Terminal Aerodrome Forecast
Issued by NWS Wilmington, OH

Current Version | Previous Version | Graphics & Text | Print | Product List | Glossary On
Versions: 1 2 3 4 5 6 7 8 9 10 11 12 13 14 15 16 17 18 19 20 21 22 23 24
054
FTUS41 KILN 130542
TAFDAY
TAF
KDAY 130542Z 1306/1406 26010KT P6SM FEW080
     FM131000 20008KT P6SM OVC080
     FM131600 19014G22KT P6SM BKN120
     FM132200 22014KT P6SM VCSH OVC050
     FM140100 27016G24KT P6SM VCSH OVC035
     FM140400 29016G24KT P6SM OVC025=

USA.gov is the U.S. government's official web portal to all federal, state and local government web resources and services.